Time;durP1;ratioP1;P1;durP2;ratioP2;P2;SDS_P1;SDS_P2;PMS_P1;PMS_P2;Temp;Humidity;BMP_temperature;BMP_pressure;BME280_temperature;BME280_humidity;BME280_pressure;Samples;Min_cycle;Max_cycle;Signal;HPM_P1;HPM_P2
2021/10/24 00:02:00;;;;;;;8.57;5.70;;;9.30;99.90;;;;;;4947464;28;20919;-87
2021/10/24 00:04:27;;;;;;;6.00;5.50;;;9.10;99.90;;;;;;4947575;28;21002;-86
2021/10/24 00:06:56;;;;;;;7.30;6.20;;;9.10;99.90;;;;;;4949445;28;20512;-87
2021/10/24 00:09:23;;;;;;;7.50;6.17;;;9.30;99.90;;;;;;4948064;28;20449;-88
2021/10/24 00:11:50;;;;;;;13.43;6.73;;;9.20;99.90;;;;;;4961822;28;20563;-88
2021/10/24 00:15:15;;;;;;;9.03;6.60;;;9.00;99.90;;;;;;4963897;28;20460;-87
2021/10/24 00:18:00;;;;;;;7.97;4.97;;;9.10;99.90;;;;;;4935905;28;20537;-86
2021/10/24 00:21:23;;;;;;;7.77;6.10;;;9.20;99.90;;;;;;4961446;28;20555;-86
2021/10/24 00:24:25;;;;;;;6.33;5.30;;;9.20;99.90;;;;;;4900594;29;20492;-88
2021/10/24 00:26:51;;;;;;;7.20;5.70;;;9.00;99.90;;;;;;4908309;28;20475;-90
2021/10/24 00:32:56;;;;;;;9.77;6.30;;;9.00;99.90;;;;;;4916592;29;20440;-86
2021/10/24 00:35:24;;;;;;;8.47;6.53;;;9.10;99.90;;;;;;4906174;29;20482;-86
2021/10/24 00:38:00;;;;;;;10.07;6.10;;;9.00;99.90;;;;;;4904967;29;20577;-87
2021/10/24 00:40:33;;;;;;;8.13;6.30;;;9.00;99.90;;;;;;4908742;29;20459;-87
2021/10/24 00:43:02;;;;;;;9.63;5.80;;;9.00;99.90;;;;;;4908543;29;20495;-85
2021/10/24 00:45:29;;;;;;;8.60;6.47;;;8.90;99.90;;;;;;4909133;29;20479;-87
2021/10/24 00:48:15;;;;;;;11.03;6.80;;;9.00;99.90;;;;;;4886555;29;20478;-84
2021/10/24 00:50:42;;;;;;;8.90;6.90;;;8.90;99.90;;;;;;4909498;29;20460;-87
2021/10/24 00:53:45;;;;;;;7.27;6.37;;;9.00;99.90;;;;;;4909261;29;20467;-88
2021/10/24 00:56:12;;;;;;;8.17;7.37;;;9.10;99.90;;;;;;4949164;28;20975;-87
2021/10/24 00:58:44;;;;;;;10.30;8.30;;;9.10;99.90;;;;;;4948690;28;20461;-86
2021/10/24 01:01:18;;;;;;;8.17;7.00;;;9.00;99.90;;;;;;4967055;28;20985;-84
2021/10/24 01:03:45;;;;;;;8.40;6.40;;;8.90;99.90;;;;;;4948262;28;20482;-88
2021/10/24 01:06:32;;;;;;;8.80;7.80;;;8.90;99.90;;;;;;4946862;28;20471;-88
2021/10/24 01:09:22;;;;;;;8.13;6.63;;;9.00;99.90;;;;;;4954314;28;20444;-86
2021/10/24 01:12:00;;;;;;;9.40;6.33;;;8.80;99.90;;;;;;4966263;28;20449;-86
2021/10/24 01:14:26;;;;;;;11.20;7.87;;;8.70;99.90;;;;;;4951407;28;20483;-85
2021/10/24 01:16:54;;;;;;;8.93;8.03;;;9.00;99.90;;;;;;4949170;28;20472;-88
2021/10/24 01:19:22;;;;;;;12.53;8.70;;;8.90;99.90;;;;;;4943441;28;20532;-85
2021/10/24 01:22:31;;;;;;;11.50;8.97;;;8.70;99.90;;;;;;4949622;29;20571;-84
2021/10/24 01:25:50;;;;;;;10.70;6.50;;;8.60;99.90;;;;;;4956485;28;20489;-85
2021/10/24 01:28:45;;;;;;;12.07;7.87;;;8.60;99.90;;;;;;4893528;29;20475;-87
2021/10/24 01:34:59;;;;;;;9.50;8.20;;;8.60;99.90;;;;;;4890027;29;20469;-86
2021/10/24 01:38:00;;;;;;;12.13;7.37;;;8.50;99.90;;;;;;4885813;29;20464;-86
2021/10/24 01:40:47;;;;;;;9.13;8.03;;;8.50;99.90;;;;;;4891640;29;20458;-84
2021/10/24 01:43:14;;;;;;;11.13;7.47;;;8.40;99.90;;;;;;4886461;29;21727;-85
2021/10/24 01:45:41;;;;;;;10.50;7.70;;;8.30;99.90;;;;;;4875218;29;20492;-85
2021/10/24 01:48:09;;;;;;;8.40;6.97;;;8.30;99.90;;;;;;4887776;29;20469;-87
2021/10/24 01:50:36;;;;;;;10.73;7.17;;;8.30;99.90;;;;;;4888260;29;20857;-85
2021/10/24 01:53:03;;;;;;;10.90;7.87;;;8.10;99.90;;;;;;4872991;29;20504;-84
2021/10/24 01:55:49;;;;;;;9.50;7.33;;;8.10;99.90;;;;;;4893591;29;20475;-86
2021/10/24 01:58:39;;;;;;;8.50;6.90;;;8.10;99.90;;;;;;4879955;29;20464;-86
2021/10/24 02:01:08;;;;;;;8.63;6.83;;;8.20;99.90;;;;;;4884575;29;20459;-85
2021/10/24 02:03:36;;;;;;;9.93;6.97;;;8.20;99.90;;;;;;4891326;29;21565;-85
2021/10/24 02:06:06;;;;;;;11.37;7.97;;;8.20;99.90;;;;;;4938781;28;20491;-84
2021/10/24 02:08:34;;;;;;;7.77;6.00;;;8.10;99.90;;;;;;4952701;29;20446;-86
2021/10/24 02:11:16;;;;;;;9.27;6.80;;;8.20;99.90;;;;;;4952593;28;20437;-86
2021/10/24 02:13:42;;;;;;;7.03;6.10;;;8.20;99.90;;;;;;4966606;28;20482;-85
2021/10/24 02:16:46;;;;;;;9.97;7.07;;;8.10;99.90;;;;;;4950656;29;20481;-85
2021/10/24 02:19:19;;;;;;;8.07;6.80;;;8.30;99.90;;;;;;4964159;28;20963;-85
2021/10/24 02:21:47;;;;;;;11.37;6.60;;;8.40;99.90;;;;;;4951681;28;20468;-85
2021/10/24 02:24:14;;;;;;;15.50;7.73;;;8.30;99.90;;;;;;4947456;29;20554;-84
2021/10/24 02:26:40;;;;;;;9.97;7.40;;;8.40;99.90;;;;;;4955656;28;20473;-84
2021/10/24 02:29:08;;;;;;;9.43;7.17;;;8.30;99.90;;;;;;4952876;28;20463;-85
2021/10/24 02:31:37;;;;;;;14.03;7.50;;;8.30;99.90;;;;;;4949642;28;20576;-84
2021/10/24 02:34:04;;;;;;;7.50;6.80;;;8.30;99.90;;;;;;4956176;29;20472;-87
2021/10/24 02:36:31;;;;;;;10.23;7.30;;;8.30;99.90;;;;;;4977603;28;20495;-88
2021/10/24 02:38:57;;;;;;;15.10;8.60;;;8.20;99.90;;;;;;4965561;28;20447;-86
2021/10/24 02:41:24;;;;;;;9.20;6.83;;;8.30;99.90;;;;;;4965324;28;20449;-86
2021/10/24 02:43:54;;;;;;;8.47;6.90;;;8.20;99.90;;;;;;4973264;28;20486;-87
2021/10/24 02:46:24;;;;;;;8.67;6.63;;;8.10;99.90;;;;;;4953606;28;20484;-87
2021/10/24 02:48:50;;;;;;;8.17;6.50;;;8.10;99.90;;;;;;4946228;28;20961;-85
2021/10/24 02:51:17;;;;;;;9.37;6.80;;;8.10;99.90;;;;;;4961956;28;20453;-87
2021/10/24 02:53:44;;;;;;;8.20;5.80;;;7.90;99.90;;;;;;4948755;28;20959;-86
2021/10/24 02:56:10;;;;;;;9.07;6.37;;;8.00;99.90;;;;;;4943563;28;20480;-85
2021/10/24 02:58:37;;;;;;;6.93;6.23;;;8.10;99.90;;;;;;4944390;29;20463;-85
2021/10/24 03:01:08;;;;;;;7.27;6.50;;;8.20;99.90;;;;;;4944657;28;20469;-85
2021/10/24 03:03:35;;;;;;;8.87;6.13;;;8.30;99.90;;;;;;4957898;28;20494;-85
2021/10/24 03:07:00;;;;;;;8.40;6.70;;;8.20;99.90;;;;;;5084486;23;20577;-86
2021/10/24 03:09:38;;;;;;;8.00;6.30;;;8.10;99.90;;;;;;4963981;28;20472;-85
2021/10/24 03:12:05;;;;;;;7.60;5.67;;;8.10;99.90;;;;;;4949120;28;20549;-85
2021/10/24 03:14:32;;;;;;;7.90;5.73;;;8.10;99.90;;;;;;4947086;28;20489;-86
2021/10/24 03:17:02;;;;;;;9.73;7.20;;;8.10;99.90;;;;;;4949107;28;20459;-87
2021/10/24 03:19:28;;;;;;;10.53;6.07;;;8.10;99.90;;;;;;4950801;28;20458;-85
2021/10/24 03:21:55;;;;;;;7.37;6.43;;;8.00;99.90;;;;;;4949779;28;20569;-85
2021/10/24 03:24:29;;;;;;;7.70;6.67;;;7.90;99.90;;;;;;4954272;28;20588;-85
2021/10/24 03:26:56;;;;;;;9.07;7.27;;;7.90;99.90;;;;;;4948748;28;20462;-88
2021/10/24 03:29:23;;;;;;;8.67;6.30;;;7.80;99.90;;;;;;4947748;28;20511;-84
2021/10/24 03:32:18;;;;;;;8.40;6.60;;;7.70;99.90;;;;;;4945310;28;20471;-86
2021/10/24 03:34:54;;;;;;;7.00;6.33;;;7.70;99.90;;;;;;4950349;28;21047;-84
2021/10/24 03:37:24;;;;;;;6.97;6.13;;;7.90;99.90;;;;;;4949994;28;20467;-84
2021/10/24 03:43:13;;;;;;;9.53;6.40;;;7.80;99.90;;;;;;4879791;29;20961;-84
2021/10/24 03:45:40;;;;;;;8.37;6.40;;;7.70;99.90;;;;;;4941084;28;20479;-84
2021/10/24 03:48:07;;;;;;;8.20;6.47;;;7.70;99.90;;;;;;4946997;28;20449;-86
2021/10/24 03:51:00;;;;;;;14.27;7.23;;;7.70;99.90;;;;;;4949167;28;20467;-84
2021/10/24 03:53:41;;;;;;;7.43;6.40;;;7.50;99.90;;;;;;4945601;28;20460;-85
2021/10/24 03:56:07;;;;;;;9.30;7.60;;;7.40;99.90;;;;;;4944822;28;20559;-85
2021/10/24 03:58:34;;;;;;;8.70;6.57;;;7.40;99.90;;;;;;4947546;28;20496;-85
2021/10/24 04:01:01;;;;;;;7.90;7.10;;;7.30;99.90;;;;;;4941255;28;20564;-85
2021/10/24 04:09:28;;;;;;;10.33;7.90;;;7.30;99.90;;;;;;4962182;26;20490;-86
2021/10/24 04:11:55;;;;;;;9.83;8.03;;;7.20;99.90;;;;;;4963545;28;20452;-87
2021/10/24 04:14:27;;;;;;;11.13;7.97;;;7.20;99.90;;;;;;4957188;28;20500;-85
2021/10/24 04:16:54;;;;;;;9.23;6.60;;;7.20;99.90;;;;;;4945597;28;20496;-84
2021/10/24 04:19:38;;;;;;;11.90;8.23;;;7.20;99.90;;;;;;4946609;28;20463;-86
2021/10/24 04:22:22;;;;;;;9.23;7.27;;;7.10;99.90;;;;;;4939468;28;21450;-86
2021/10/24 04:24:49;;;;;;;11.13;7.30;;;7.10;99.90;;;;;;4946807;28;20488;-87
2021/10/24 04:27:15;;;;;;;9.17;6.70;;;7.20;99.90;;;;;;4944593;28;21375;-86
2021/10/24 04:30:30;;;;;;;;;;;;;;;;;;;;;
2021/10/24 04:33:35;;;;;;;10.13;7.37;;;7.20;99.90;;;;;;4946999;28;20466;-85
2021/10/24 04:41:19;;;;;;;10.57;6.90;;;7.30;99.90;;;;;;4946475;28;20549;-85
2021/10/24 04:43:46;;;;;;;10.50;6.70;;;7.20;99.90;;;;;;4940259;28;20487;-85
2021/10/24 04:46:15;;;;;;;8.63;7.07;;;7.20;99.90;;;;;;4959777;28;20867;-84
2021/10/24 04:51:53;;;;;;;8.17;6.50;;;7.20;99.90;;;;;;4948872;28;20427;-85
2021/10/24 04:54:29;;;;;;;8.73;6.83;;;7.30;99.90;;;;;;4947751;28;20805;-84
2021/10/24 04:56:59;;;;;;;8.53;6.70;;;7.40;99.90;;;;;;4946904;28;20496;-85
2021/10/24 05:03:36;;;;;;;;;;;;;;;;;;;;;
2021/10/24 05:06:21;;;;;;;9.33;7.57;;;7.00;99.90;;;;;;4924522;28;20514;-85
2021/10/24 05:08:48;;;;;;;8.10;7.40;;;7.10;99.90;;;;;;4960439;28;20470;-85
2021/10/24 05:11:15;;;;;;;8.90;7.30;;;7.00;99.90;;;;;;4943543;28;20483;-87
2021/10/24 05:13:44;;;;;;;9.30;7.97;;;7.20;99.90;;;;;;4964394;28;20463;-86
2021/10/24 05:16:14;;;;;;;8.93;7.60;;;7.20;99.90;;;;;;4964437;28;20487;-86
2021/10/24 05:18:41;;;;;;;10.53;7.00;;;7.20;99.90;;;;;;4965856;28;20449;-85
2021/10/24 05:22:20;;;;;;;;;;;;;;;;;;;;;
2021/10/24 05:32:37;;;;;;;;;;;;;;;;;;;;;
2021/10/24 05:43:23;;;;;;;10.63;6.97;;;7.00;99.90;;;;;;4949517;28;20431;-86
2021/10/24 05:54:35;;;;;;;11.53;7.30;;;6.90;99.90;;;;;;4863350;29;20609;-84
2021/10/24 05:58:06;;;;;;;7.97;6.63;;;6.80;99.90;;;;;;4832196;29;20464;-86
2021/10/24 06:00:47;;;;;;;10.17;6.97;;;6.90;99.90;;;;;;4780628;29;20492;-83
2021/10/24 06:29:05;;;;;;;8.53;7.73;;;6.80;99.90;;;;;;4968023;28;20476;-85
2021/10/24 06:32:04;;;;;;;9.20;6.97;;;6.80;99.90;;;;;;4973997;28;20468;-86
2021/10/24 06:34:46;;;;;;;15.70;8.10;;;6.80;99.90;;;;;;4976985;28;20550;-87
2021/10/24 06:37:20;;;;;;;8.50;6.90;;;6.70;99.90;;;;;;4973486;28;20577;-85
2021/10/24 06:39:46;;;;;;;9.73;7.80;;;6.70;99.90;;;;;;4973797;28;20466;-84
2021/10/24 06:42:13;;;;;;;8.60;7.20;;;6.90;99.90;;;;;;4956880;28;20517;-85
2021/10/24 06:48:18;;;;;;;11.20;6.87;;;6.60;99.90;;;;;;4952556;28;20522;-84
2021/10/24 06:54:40;;;;;;;8.30;6.90;;;6.80;99.90;;;;;;4973319;28;20463;-84
2021/10/24 06:58:02;;;;;;;8.40;6.50;;;7.20;99.90;;;;;;4970391;28;20464;-87
2021/10/24 07:00:43;;;;;;;7.17;5.90;;;8.60;99.90;;;;;;4894697;29;20498;-85
2021/10/24 07:03:10;;;;;;;8.10;6.30;;;10.40;99.90;;;;;;4911858;29;20537;-85
2021/10/24 07:06:41;;;;;;;7.97;6.10;;;12.10;95.40;;;;;;4912301;29;20636;-86
2021/10/24 07:09:37;;;;;;;8.50;5.27;;;12.90;93.70;;;;;;4780153;29;20575;-85
2021/10/24 07:15:50;;;;;;;6.20;5.60;;;14.10;90.40;;;;;;4777758;29;21365;-85
2021/10/24 07:18:20;;;;;;;7.10;5.13;;;14.20;87.70;;;;;;4783185;29;20474;-85
2021/10/24 07:20:47;;;;;;;10.90;6.20;;;13.60;87.90;;;;;;4777626;29;20586;-85
2021/10/24 07:24:08;;;;;;;;;;;;;;;;;;;;;
2021/10/24 07:27:37;;;;;;;5.90;5.00;;;12.10;91.90;;;;;;4814590;29;20457;-89
2021/10/24 07:30:31;;;;;;;7.30;5.50;;;11.70;92.20;;;;;;4855485;29;20466;-86
2021/10/24 07:34:20;;;;;;;;;;;;;;;;;;;;;
2021/10/24 07:37:52;;;;;;;6.60;5.63;;;11.50;92.90;;;;;;4840688;29;20497;-86
2021/10/24 08:04:07;;;;;;;6.07;4.90;;;8.70;99.90;;;;;;5328201;23;20594;-87
2021/10/24 08:06:36;;;;;;;6.50;5.70;;;8.80;99.90;;;;;;5004230;28;20459;-87
2021/10/24 08:16:13;;;;;;;10.10;4.87;;;9.20;99.50;;;;;;5003486;28;20468;-85
2021/10/24 08:18:43;;;;;;;5.90;4.53;;;9.20;99.90;;;;;;5002852;28;20654;-86
2021/10/24 08:28:03;;;;;;;8.27;5.60;;;9.70;98.20;;;;;;4937007;28;20497;-86
2021/10/24 08:46:51;;;;;;;4.57;3.80;;;9.10;99.90;;;;;;4999875;28;20476;-88
2021/10/24 08:59:31;;;;;;;7.50;4.13;;;9.70;98.90;;;;;;3132053;26;20477;-86
2021/10/24 09:01:57;;;;;;;5.03;4.03;;;9.80;97.80;;;;;;4962797;28;20786;-85
2021/10/24 09:04:40;;;;;;;6.90;3.47;;;9.50;98.50;;;;;;4982613;28;20498;-87
2021/10/24 09:07:17;;;;;;;4.60;3.60;;;9.60;98.70;;;;;;4964901;28;20460;-85
2021/10/24 09:09:58;;;;;;;3.90;3.20;;;9.70;98.30;;;;;;4983506;28;20498;-85
2021/10/24 09:13:31;;;;;;;;;;;;;;;;;;;;;
2021/10/24 09:17:46;;;;;;;5.73;3.83;;;9.80;98.60;;;;;;4946755;28;20543;-85
2021/10/24 09:20:25;;;;;;;3.97;3.53;;;10.00;97.20;;;;;;4982735;28;20466;-84
2021/10/24 09:23:26;;;;;;;4.87;3.50;;;10.10;97.80;;;;;;4989141;28;20505;-85
2021/10/24 09:27:19;;;;;;;8.37;3.37;;;10.30;96.90;;;;;;4993299;28;20994;-87
2021/10/24 09:29:48;;;;;;;6.30;3.73;;;10.40;97.00;;;;;;4990776;28;20450;-87
2021/10/24 09:39:24;;;;;;;4.20;2.83;;;12.90;92.70;;;;;;5082466;23;22331;-89
2021/10/24 09:42:09;;;;;;;3.83;3.43;;;15.10;89.00;;;;;;4985496;28;20467;-86
2021/10/24 09:51:59;;;;;;;4.60;3.50;;;15.10;80.00;;;;;;5015241;28;20464;-85
2021/10/24 09:57:54;;;;;;;6.73;3.90;;;13.80;86.10;;;;;;5201551;22;20506;-85
2021/10/24 10:00:37;;;;;;;4.17;3.30;;;13.50;87.20;;;;;;5003024;28;20470;-85
2021/10/24 10:06:33;;;;;;;3.43;2.93;;;13.10;89.70;;;;;;5182591;23;20960;-85
2021/10/24 10:09:24;;;;;;;3.90;2.60;;;12.70;90.20;;;;;;5000756;28;20449;-85
2021/10/24 10:12:44;;;;;;;;;;;;;;;;;;;;;
2021/10/24 10:15:31;;;;;;;5.67;2.93;;;12.40;90.80;;;;;;5000683;23;20804;-86
2021/10/24 10:18:01;;;;;;;3.77;2.90;;;12.20;90.70;;;;;;5006840;28;20466;-86
2021/10/24 10:20:29;;;;;;;7.73;2.90;;;12.20;91.30;;;;;;4989540;28;22475;-86
2021/10/24 10:23:12;;;;;;;3.40;1.80;;;12.30;90.90;;;;;;5010726;28;21250;-87
2021/10/24 10:36:20;;;;;;;2.73;2.53;;;12.40;91.40;;;;;;1413769;26;20513;-86
2021/10/24 10:38:46;;;;;;;4.00;2.60;;;12.30;91.40;;;;;;4974295;28;20525;-87
2021/10/24 10:41:15;;;;;;;5.37;2.60;;;12.50;91.10;;;;;;4974317;28;20536;-86
2021/10/24 10:44:11;;;;;;;3.80;2.93;;;12.80;91.00;;;;;;4996935;28;20881;-85
2021/10/24 10:46:39;;;;;;;3.03;2.57;;;12.70;91.10;;;;;;4991179;28;20440;-86
2021/10/24 10:50:02;;;;;;;2.97;2.53;;;12.80;90.70;;;;;;4996717;28;20460;-88
2021/10/24 11:03:09;;;;;;;4.20;2.70;;;12.80;90.00;;;;;;5071187;23;20979;-85
2021/10/24 11:05:50;;;;;;;3.47;2.50;;;12.80;90.50;;;;;;4979492;28;20507;-85
2021/10/24 11:09:10;;;;;;;2.50;2.30;;;12.90;89.80;;;;;;4963699;28;20467;-87
2021/10/24 11:11:40;;;;;;;3.43;2.20;;;13.00;89.40;;;;;;4962285;28;20456;-86
2021/10/24 11:14:13;;;;;;;2.73;2.37;;;13.10;88.60;;;;;;4960105;28;20471;-85
2021/10/24 11:20:42;;;;;;;2.83;2.30;;;13.10;88.30;;;;;;4986492;28;20892;-86
2021/10/24 11:33:26;;;;;;;4.30;2.13;;;13.50;86.10;;;;;;5065470;23;20498;-86
2021/10/24 11:43:39;;;;;;;3.10;2.20;;;13.30;88.80;;;;;;5005726;28;20430;-85
2021/10/24 11:46:51;;;;;;;3.47;2.20;;;13.30;87.80;;;;;;5001805;28;20494;-88
2021/10/24 11:49:52;;;;;;;2.70;1.87;;;13.30;88.40;;;;;;4990836;28;20409;-86
2021/10/24 11:52:33;;;;;;;5.47;2.03;;;13.80;87.30;;;;;;5004993;28;21264;-85
2021/10/24 11:55:06;;;;;;;3.57;2.73;;;14.00;85.80;;;;;;4983960;28;20487;-84
2021/10/24 12:01:22;;;;;;;2.70;2.20;;;13.70;86.80;;;;;;4949127;28;20527;-86
2021/10/24 12:03:57;;;;;;;3.00;2.40;;;13.80;87.00;;;;;;4981899;28;20485;-85
2021/10/24 12:06:57;;;;;;;4.43;3.07;;;13.70;86.90;;;;;;5012706;28;20490;-87
2021/10/24 12:10:26;;;;;;;3.17;2.97;;;13.70;87.50;;;;;;5010318;28;20544;-87
2021/10/24 12:13:36;;;;;;;2.40;1.90;;;14.10;86.20;;;;;;4853436;29;20482;-87
2021/10/24 12:16:43;;;;;;;3.17;2.43;;;14.30;85.30;;;;;;4891190;29;20548;-86
2021/10/24 12:19:19;;;;;;;2.30;2.10;;;14.20;85.10;;;;;;4877534;29;20472;-88
2021/10/24 12:22:01;;;;;;;2.40;2.10;;;13.70;86.00;;;;;;4895190;29;20539;-84
2021/10/24 12:25:00;;;;;;;5.03;2.10;;;13.60;87.60;;;;;;4896043;29;20493;-85
2021/10/24 12:27:39;;;;;;;2.60;2.40;;;13.90;87.10;;;;;;4869898;29;20479;-86
2021/10/24 12:30:23;;;;;;;5.93;2.40;;;14.20;85.50;;;;;;4889359;29;20463;-86
2021/10/24 12:33:12;;;;;;;2.23;2.10;;;14.20;85.10;;;;;;4893735;29;20471;-87
2021/10/24 12:35:43;;;;;;;3.13;2.20;;;14.30;85.20;;;;;;5003390;23;20490;-87
2021/10/24 12:38:12;;;;;;;3.07;2.10;;;14.30;85.40;;;;;;4981506;28;20458;-88
2021/10/24 12:40:55;;;;;;;3.03;2.37;;;14.50;84.90;;;;;;4972619;28;20463;-88
2021/10/24 12:44:01;;;;;;;2.60;2.40;;;14.40;85.10;;;;;;4981674;28;20451;-87
2021/10/24 12:50:57;;;;;;;4.17;2.30;;;14.10;86.20;;;;;;4980267;28;21046;-86
2021/10/24 12:53:42;;;;;;;3.60;2.23;;;14.40;86.10;;;;;;4961643;28;20486;-85
2021/10/24 12:56:40;;;;;;;2.30;2.10;;;14.50;86.70;;;;;;4967471;28;20476;-88
2021/10/24 13:00:07;;;;;;;;;;;;;;;;;;;;;
2021/10/24 13:03:45;;;;;;;2.60;2.20;;;14.70;84.60;;;;;;4912028;28;20425;-85
2021/10/24 13:06:11;;;;;;;3.93;2.60;;;14.70;84.60;;;;;;4997681;23;20715;-87
2021/10/24 13:08:46;;;;;;;5.67;2.33;;;14.90;84.80;;;;;;4976765;28;20475;-88
2021/10/24 13:11:13;;;;;;;2.90;2.10;;;14.90;84.80;;;;;;4994452;28;20455;-85
2021/10/24 13:13:44;;;;;;;3.70;2.53;;;15.10;84.30;;;;;;4973708;28;20463;-84
2021/10/24 13:16:22;;;;;;;2.13;1.93;;;15.20;83.00;;;;;;4978245;28;20474;-85
2021/10/24 13:18:49;;;;;;;3.53;2.57;;;15.40;82.80;;;;;;4973613;28;21760;-87
2021/10/24 13:24:08;;;;;;;2.17;2.00;;;15.40;82.50;;;;;;4991884;28;21370;-86
2021/10/24 13:26:37;;;;;;;3.00;2.50;;;15.40;82.60;;;;;;4971808;28;20470;-87
2021/10/24 13:29:09;;;;;;;4.70;2.57;;;15.30;83.20;;;;;;4974834;28;20453;-87
2021/10/24 13:31:36;;;;;;;2.60;2.40;;;15.10;84.10;;;;;;4973045;28;20451;-86
2021/10/24 13:34:04;;;;;;;2.60;2.30;;;15.20;83.00;;;;;;4992421;28;20451;-85
2021/10/24 13:36:33;;;;;;;3.07;2.57;;;15.00;82.30;;;;;;4975639;28;20595;-85
2021/10/24 13:39:00;;;;;;;3.90;3.60;;;15.10;82.60;;;;;;4982930;28;20531;-86
2021/10/24 13:42:02;;;;;;;3.53;2.23;;;15.10;82.90;;;;;;4981268;28;20472;-85
2021/10/24 13:44:22;;;;;;;2.50;2.30;;;15.10;83.20;;;;;;4994850;28;20472;-87
2021/10/24 13:46:55;;;;;;;4.40;2.97;;;15.20;82.80;;;;;;4978388;28;20491;-86
2021/10/24 13:49:22;;;;;;;4.10;2.30;;;15.10;83.10;;;;;;4997193;28;20461;-86
2021/10/24 13:51:49;;;;;;;3.77;2.80;;;15.20;83.50;;;;;;4998828;28;20458;-86
2021/10/24 13:59:34;;;;;;;4.77;2.60;;;15.10;83.30;;;;;;4997447;28;21202;-86
2021/10/24 14:03:01;;;;;;;;;;;;;;;;;;;;;
2021/10/24 14:09:03;;;;;;;2.33;2.10;;;15.10;83.40;;;;;;5004704;28;20458;-85
2021/10/24 14:11:30;;;;;;;4.33;2.73;;;15.00;83.50;;;;;;4985698;28;20458;-86
2021/10/24 14:13:59;;;;;;;3.90;2.20;;;15.00;84.20;;;;;;4984691;28;20578;-85
2021/10/24 14:17:38;;;;;;;2.73;2.30;;;15.00;84.80;;;;;;5001700;28;20473;-85
2021/10/24 14:20:29;;;;;;;2.60;1.90;;;15.10;84.20;;;;;;4994383;28;20431;-85
2021/10/24 14:22:56;;;;;;;3.03;2.50;;;14.90;83.90;;;;;;4995003;28;20470;-87
2021/10/24 14:25:23;;;;;;;2.40;2.10;;;14.80;85.00;;;;;;5005176;28;20596;-86
2021/10/24 14:27:50;;;;;;;1.70;1.60;;;14.90;84.70;;;;;;4989137;28;22151;-87
2021/10/24 14:30:20;;;;;;;3.27;2.10;;;15.00;84.20;;;;;;4984616;28;20499;-85
2021/10/24 14:33:34;;;;;;;3.10;2.80;;;15.00;85.80;;;;;;5000004;28;20494;-86
2021/10/24 14:36:37;;;;;;;4.40;3.00;;;14.90;85.40;;;;;;4994378;23;20505;-87
2021/10/24 14:39:16;;;;;;;3.50;2.90;;;15.00;85.80;;;;;;5012617;28;20434;-85
2021/10/24 14:42:30;;;;;;;;;;;;;;;;;;;;;
2021/10/24 14:49:05;;;;;;;3.73;2.33;;;15.10;85.60;;;;;;4991728;23;20502;-87
2021/10/24 14:52:28;;;;;;;3.40;2.53;;;14.90;85.90;;;;;;4994787;28;20476;-87
2021/10/24 15:02:29;;;;;;;4.63;2.60;;;14.60;87.80;;;;;;4896651;29;20478;-86
2021/10/24 15:13:28;;;;;;;4.40;1.70;;;14.80;87.60;;;;;;4822836;29;20565;-84
2021/10/24 15:16:23;;;;;;;4.63;2.50;;;14.70;88.60;;;;;;4830879;29;20581;-87
2021/10/24 15:19:28;;;;;;;2.20;1.97;;;14.60;88.50;;;;;;4882479;28;20463;-86
2021/10/24 15:21:51;;;;;;;3.63;2.17;;;14.80;88.70;;;;;;4971767;28;20455;-84
2021/10/24 15:29:49;;;;;;;3.10;2.33;;;15.00;86.60;;;;;;5010429;28;20486;-86
2021/10/24 15:32:31;;;;;;;2.20;2.00;;;15.00;86.50;;;;;;4994319;28;20458;-86
2021/10/24 15:35:01;;;;;;;2.70;2.50;;;14.90;87.00;;;;;;5004602;28;20542;-86
2021/10/24 15:37:42;;;;;;;2.97;2.60;;;14.80;87.00;;;;;;4976805;28;20483;-86
2021/10/24 15:40:17;;;;;;;3.23;2.20;;;14.80;87.00;;;;;;4974682;28;20464;-85
2021/10/24 15:50:14;;;;;;;2.50;2.10;;;14.80;87.20;;;;;;4976359;28;20469;-85
2021/10/24 15:52:41;;;;;;;3.80;2.40;;;14.90;87.00;;;;;;4980049;28;20467;-86
2021/10/24 15:56:06;;;;;;;4.57;3.37;;;14.60;87.30;;;;;;4994396;28;20511;-87
2021/10/24 16:03:09;;;;;;;4.97;2.00;;;14.70;87.20;;;;;;4910220;29;20447;-88
2021/10/24 16:05:37;;;;;;;3.20;2.60;;;14.50;88.00;;;;;;4968223;28;20482;-86
2021/10/24 16:08:04;;;;;;;3.87;2.63;;;14.50;87.90;;;;;;4990411;28;20444;-85
2021/10/24 16:10:57;;;;;;;2.73;2.10;;;14.40;87.90;;;;;;4972179;28;20554;-87
2021/10/24 16:19:37;;;;;;;2.47;2.10;;;14.50;88.40;;;;;;4627824;23;20499;-86
2021/10/24 16:22:32;;;;;;;3.03;2.03;;;14.50;88.30;;;;;;5000842;28;20475;-86
2021/10/24 16:25:16;;;;;;;4.30;2.47;;;14.30;88.90;;;;;;4971095;28;20492;-86
2021/10/24 16:27:44;;;;;;;2.80;2.37;;;14.10;89.40;;;;;;4984159;28;20914;-87
2021/10/24 16:30:13;;;;;;;2.70;2.10;;;14.20;89.60;;;;;;4981354;28;20898;-85
2021/10/24 16:33:05;;;;;;;2.30;2.10;;;14.20;89.90;;;;;;4978015;28;20510;-85
2021/10/24 16:35:41;;;;;;;3.67;2.57;;;14.30;89.70;;;;;;4979359;28;20542;-85
2021/10/24 16:38:07;;;;;;;3.13;2.50;;;14.20;89.80;;;;;;4980918;28;20470;-85
2021/10/24 16:40:34;;;;;;;2.63;2.43;;;14.10;90.00;;;;;;4978233;28;20967;-88
2021/10/24 16:49:16;;;;;;;2.87;2.60;;;13.60;91.30;;;;;;5048546;28;20621;-85
2021/10/24 16:51:42;;;;;;;3.40;2.50;;;13.70;91.20;;;;;;5049015;28;20467;-83
2021/10/24 16:55:08;;;;;;;6.23;2.93;;;13.70;90.80;;;;;;5029777;28;20504;-83
2021/10/24 17:01:06;;;;;;;4.23;3.00;;;13.60;91.20;;;;;;5046100;28;20540;-85
2021/10/24 17:12:01;;;;;;;6.73;3.27;;;13.30;91.70;;;;;;4976126;28;20617;-86
2021/10/24 17:18:45;;;;;;;3.20;2.90;;;13.40;91.60;;;;;;5048048;28;20431;-84
2021/10/24 17:25:52;;;;;;;4.63;3.60;;;13.10;92.10;;;;;;4983259;28;20552;-84
2021/10/24 17:29:12;;;;;;;3.60;3.30;;;12.80;92.70;;;;;;4952044;28;20455;-84
2021/10/24 17:32:36;;;;;;;;;;;;;;;;;;;;;
2021/10/24 17:35:58;;;;;;;6.23;4.37;;;12.90;92.70;;;;;;4970729;28;20452;-85
2021/10/24 17:46:36;;;;;;;4.73;3.10;;;13.10;92.50;;;;;;5011872;23;20564;-87
2021/10/24 17:56:34;;;;;;;4.00;3.60;;;12.90;93.10;;;;;;5009309;28;20430;-87
2021/10/24 18:21:04;;;;;;;6.43;4.70;;;12.70;93.80;;;;;;4916734;29;20470;-85
2021/10/24 18:24:15;;;;;;;;;;;;;;;;;;;;;
2021/10/24 18:29:41;;;;;;;4.30;3.90;;;12.30;94.50;;;;;;1205364;23;20916;-85
2021/10/24 18:32:11;;;;;;;4.47;4.03;;;12.40;94.50;;;;;;5007892;28;20524;-86
2021/10/24 18:34:46;;;;;;;8.40;4.40;;;12.50;94.40;;;;;;5007981;28;20530;-86
2021/10/24 18:37:15;;;;;;;5.03;4.53;;;12.40;94.40;;;;;;5006413;28;20455;-85
2021/10/24 18:39:42;;;;;;;5.63;4.23;;;12.20;94.70;;;;;;5008825;28;20539;-85
2021/10/24 18:42:36;;;;;;;8.70;4.33;;;12.20;95.00;;;;;;5011175;28;20489;-83
2021/10/24 18:45:26;;;;;;;4.63;4.00;;;12.10;95.10;;;;;;5009862;28;20523;-84
2021/10/24 18:47:56;;;;;;;4.50;4.00;;;12.20;95.30;;;;;;5026491;28;20981;-81
2021/10/24 18:50:27;;;;;;;4.80;4.30;;;12.20;95.60;;;;;;5007006;28;20457;-86
2021/10/24 18:52:55;;;;;;;7.87;4.70;;;12.30;95.40;;;;;;5023458;28;20451;-86
2021/10/24 18:55:24;;;;;;;6.40;4.83;;;12.30;95.40;;;;;;5231708;23;20990;-84
2021/10/24 18:57:55;;;;;;;5.67;4.53;;;12.20;95.50;;;;;;4992299;28;20463;-85
2021/10/24 19:00:23;;;;;;;6.20;5.10;;;12.10;95.70;;;;;;4979102;28;20494;-86
2021/10/24 19:02:50;;;;;;;5.87;4.63;;;11.90;96.10;;;;;;4980315;28;21145;-84
2021/10/24 19:05:30;;;;;;;6.10;4.93;;;11.90;96.50;;;;;;4991213;28;20483;-84
2021/10/24 19:08:00;;;;;;;5.50;4.90;;;11.90;96.70;;;;;;4987586;28;20550;-85
2021/10/24 19:10:27;;;;;;;5.00;4.50;;;12.00;96.60;;;;;;4971828;28;20505;-84
2021/10/24 19:13:42;;;;;;;6.17;5.43;;;11.90;96.70;;;;;;4975167;28;20455;-86
2021/10/24 19:20:23;;;;;;;6.23;5.10;;;11.70;97.00;;;;;;4985449;28;20443;-85
2021/10/24 19:22:59;;;;;;;8.40;4.50;;;11.80;96.90;;;;;;4967380;28;20452;-84
2021/10/24 19:25:28;;;;;;;4.87;4.27;;;11.90;96.80;;;;;;4977124;28;20495;-85
2021/10/24 19:28:02;;;;;;;5.20;4.70;;;11.80;97.10;;;;;;4963103;28;20536;-83
2021/10/24 19:31:16;;;;;;;5.93;5.10;;;11.90;97.00;;;;;;4953328;28;21180;-84
2021/10/24 19:33:49;;;;;;;7.67;4.83;;;11.80;96.90;;;;;;4911281;28;20565;-83
2021/10/24 19:44:19;;;;;;;5.67;4.53;;;11.70;97.50;;;;;;4989478;28;20403;-86
2021/10/24 19:46:52;;;;;;;6.03;5.43;;;11.60;97.60;;;;;;4988238;28;20516;-86
2021/10/24 19:53:29;;;;;;;5.97;5.20;;;11.50;98.10;;;;;;4871501;29;20443;-84
2021/10/24 19:56:43;;;;;;;7.97;5.37;;;11.50;98.50;;;;;;4866872;29;20497;-82
2021/10/24 20:25:33;;;;;;;5.90;5.30;;;11.30;99.20;;;;;;556973;26;20762;-83
2021/10/24 20:28:16;;;;;;;6.63;5.43;;;11.30;99.00;;;;;;4967738;28;20472;-84
2021/10/24 20:31:59;;;;;;;;;;;;;;;;;;;;;
2021/10/24 20:35:26;;;;;;;7.40;5.63;;;11.10;99.50;;;;;;4872547;29;20523;-84
2021/10/24 20:38:05;;;;;;;6.50;5.80;;;11.20;99.30;;;;;;4894448;28;20447;-86
2021/10/24 20:40:36;;;;;;;6.90;5.40;;;11.20;99.50;;;;;;4975284;28;20460;-84
2021/10/24 20:43:06;;;;;;;7.57;5.53;;;11.10;99.70;;;;;;4978685;28;20439;-87
2021/10/24 20:45:49;;;;;;;9.97;5.77;;;11.10;99.90;;;;;;4987408;28;20495;-87
2021/10/24 20:49:25;;;;;;;8.53;5.80;;;11.10;99.70;;;;;;4987206;28;20615;-85
2021/10/24 20:52:58;;;;;;;7.73;5.73;;;11.10;99.60;;;;;;4897031;29;20416;-86